Time;durP1;ratioP1;P1;durP2;ratioP2;P2;SDS_P1;SDS_P2;PMS_P1;PMS_P2;Temp;Humidity;BMP_temperature;BMP_pressure;BME280_temperature;BME280_humidity;BME280_pressure;Samples;Min_cycle;Max_cycle;Signal;HPM_P1;HPM_P2
2022/08/22 00:01:13;;;;;;;9.90;4.43;;;;;;;;;;5054232;28;20048;-77
2022/08/22 00:03:46;;;;;;;11.13;4.95;;;;;;;;;;5036336;28;20045;-77
2022/08/22 00:06:19;;;;;;;12.90;4.90;;;;;;;;;;5052958;28;20045;-77
2022/08/22 00:08:48;;;;;;;9.27;4.60;;;;;;;;;;5052483;28;20460;-77
2022/08/22 00:11:26;;;;;;;8.88;4.60;;;;;;;;;;5052900;28;20378;-77
2022/08/22 00:13:52;;;;;;;12.85;5.20;;;;;;;;;;5052199;28;20036;-77
2022/08/22 00:16:30;;;;;;;13.40;5.28;;;;;;;;;;5035963;28;20048;-77
2022/08/22 00:19:02;;;;;;;9.93;4.70;;;;;;;;;;5052246;28;20040;-77
2022/08/22 00:21:32;;;;;;;9.50;4.50;;;;;;;;;;5053685;28;20397;-77
2022/08/22 00:24:01;;;;;;;10.88;5.28;;;;;;;;;;5051766;28;20116;-77
2022/08/22 00:26:27;;;;;;;14.80;5.70;;;;;;;;;;5052419;28;20079;-77
2022/08/22 00:29:00;;;;;;;10.77;5.70;;;;;;;;;;5052251;28;20393;-77
2022/08/22 00:31:36;;;;;;;8.23;4.90;;;;;;;;;;5035692;28;20120;-77
2022/08/22 00:34:02;;;;;;;10.82;5.78;;;;;;;;;;5051665;28;20150;-77
2022/08/22 00:36:31;;;;;;;14.68;6.97;;;;;;;;;;5035710;28;20037;-77
2022/08/22 00:39:05;;;;;;;9.75;5.47;;;;;;;;;;5051815;28;20397;-77
2022/08/22 00:41:55;;;;;;;8.38;5.18;;;;;;;;;;5052229;28;20083;-77
2022/08/22 00:44:24;;;;;;;10.25;5.57;;;;;;;;;;5035679;28;20123;-77
2022/08/22 00:47:06;;;;;;;12.57;5.90;;;;;;;;;;5051168;28;20045;-77
2022/08/22 00:49:41;;;;;;;11.23;5.95;;;;;;;;;;5051411;28;20056;-77
2022/08/22 00:52:16;;;;;;;12.55;6.13;;;;;;;;;;5034914;28;20049;-77
2022/08/22 00:54:55;;;;;;;11.30;5.43;;;;;;;;;;5051950;28;20473;-77
2022/08/22 00:57:46;;;;;;;10.02;5.25;;;;;;;;;;5051818;28;20048;-77
2022/08/22 01:00:21;;;;;;;14.52;6.10;;;;;;;;;;5037818;28;20037;-77
2022/08/22 01:02:50;;;;;;;14.68;5.85;;;;;;;;;;5047794;28;20126;-77
2022/08/22 01:05:16;;;;;;;12.80;6.15;;;;;;;;;;5035053;28;20110;-77
2022/08/22 01:07:46;;;;;;;10.30;5.53;;;;;;;;;;5034892;28;20124;-77
2022/08/22 01:10:25;;;;;;;12.00;6.00;;;;;;;;;;5051029;28;20060;-77
2022/08/22 01:13:11;;;;;;;11.07;5.90;;;;;;;;;;5035335;28;20049;-77
2022/08/22 01:15:38;;;;;;;8.93;5.53;;;;;;;;;;5051378;28;20049;-77
2022/08/22 01:18:10;;;;;;;12.13;5.97;;;;;;;;;;5051067;28;20432;-77
2022/08/22 01:20:55;;;;;;;10.95;5.80;;;;;;;;;;5051396;28;20037;-77
2022/08/22 01:23:40;;;;;;;11.27;5.82;;;;;;;;;;5051079;28;20043;-77
2022/08/22 01:26:24;;;;;;;9.77;5.80;;;;;;;;;;5034522;28;20041;-77
2022/08/22 01:28:57;;;;;;;8.73;5.57;;;;;;;;;;5060733;28;20048;-77
2022/08/22 01:31:23;;;;;;;9.65;5.60;;;;;;;;;;5051269;28;20049;-77
2022/08/22 01:33:55;;;;;;;11.70;6.70;;;;;;;;;;5034634;28;20098;-77
2022/08/22 01:36:35;;;;;;;14.70;6.78;;;;;;;;;;5050868;28;20134;-77
2022/08/22 01:39:19;;;;;;;10.65;6.07;;;;;;;;;;5051088;28;20531;-77
2022/08/22 01:41:56;;;;;;;9.48;6.03;;;;;;;;;;5050937;28;20047;-77
2022/08/22 01:44:25;;;;;;;12.18;6.25;;;;;;;;;;5051543;28;20070;-76
2022/08/22 01:46:55;;;;;;;9.75;5.47;;;;;;;;;;5051260;28;20604;-77
2022/08/22 01:49:21;;;;;;;12.07;6.28;;;;;;;;;;5050688;28;20061;-77
2022/08/22 01:51:57;;;;;;;11.40;6.40;;;;;;;;;;5034235;28;20045;-77
2022/08/22 01:54:44;;;;;;;11.82;6.18;;;;;;;;;;5050879;28;20070;-77
2022/08/22 01:57:11;;;;;;;9.43;5.47;;;;;;;;;;5050770;28;20037;-77
2022/08/22 01:59:38;;;;;;;10.15;5.40;;;;;;;;;;5038420;28;20032;-77
2022/08/22 02:02:23;;;;;;;8.90;5.47;;;;;;;;;;5039968;28;20493;-76
2022/08/22 02:04:55;;;;;;;10.30;5.40;;;;;;;;;;5036739;28;20045;-77
2022/08/22 02:07:39;;;;;;;10.90;6.40;;;;;;;;;;5048402;28;20040;-77
2022/08/22 02:10:24;;;;;;;9.07;5.85;;;;;;;;;;5047132;28;20037;-77
2022/08/22 02:13:11;;;;;;;13.20;6.60;;;;;;;;;;5057364;28;20049;-77
2022/08/22 02:15:41;;;;;;;11.23;6.72;;;;;;;;;;5057085;28;20045;-77
2022/08/22 02:18:11;;;;;;;14.57;7.38;;;;;;;;;;5073696;28;20032;-77
2022/08/22 02:20:55;;;;;;;13.40;6.78;;;;;;;;;;5057345;28;20033;-77
2022/08/22 02:23:24;;;;;;;11.40;6.60;;;;;;;;;;5058394;28;20033;-77
2022/08/22 02:25:57;;;;;;;11.73;6.03;;;;;;;;;;5040588;28;20047;-77
2022/08/22 02:28:42;;;;;;;12.00;7.30;;;;;;;;;;5043623;28;20055;-77
2022/08/22 02:31:13;;;;;;;14.38;7.20;;;;;;;;;;5056949;28;20040;-77
2022/08/22 02:33:45;;;;;;;12.23;5.95;;;;;;;;;;5057389;28;20044;-77
2022/08/22 02:36:17;;;;;;;13.38;7.15;;;;;;;;;;5039994;28;20568;-76
2022/08/22 02:38:50;;;;;;;12.88;6.80;;;;;;;;;;5057542;28;20059;-77
2022/08/22 02:41:21;;;;;;;12.43;6.88;;;;;;;;;;5056752;28;20036;-77
2022/08/22 02:43:56;;;;;;;12.20;6.53;;;;;;;;;;5057258;28;20099;-77
2022/08/22 02:46:29;;;;;;;13.90;7.30;;;;;;;;;;5057064;28;20051;-76
2022/08/22 02:49:04;;;;;;;12.88;7.18;;;;;;;;;;5057191;28;20052;-76
2022/08/22 02:51:40;;;;;;;17.52;7.60;;;;;;;;;;5057388;28;20528;-76
2022/08/22 02:54:13;;;;;;;14.65;7.60;;;;;;;;;;5056738;28;20037;-76
2022/08/22 02:56:44;;;;;;;15.55;7.32;;;;;;;;;;5040196;28;20103;-76
2022/08/22 02:59:28;;;;;;;13.52;7.25;;;;;;;;;;5057036;28;20056;-76
2022/08/22 03:01:55;;;;;;;15.80;7.93;;;;;;;;;;5057091;28;20067;-76
2022/08/22 03:04:24;;;;;;;15.75;7.70;;;;;;;;;;5056915;28;20041;-76
2022/08/22 03:07:05;;;;;;;14.70;8.07;;;;;;;;;;5057053;28;20095;-76
2022/08/22 03:09:45;;;;;;;19.25;8.60;;;;;;;;;;5057148;28;20037;-76
2022/08/22 03:12:25;;;;;;;11.35;7.32;;;;;;;;;;5035918;28;20036;-76
2022/08/22 03:15:05;;;;;;;11.77;6.38;;;;;;;;;;5041041;28;20496;-76
2022/08/22 03:17:38;;;;;;;11.80;5.68;;;;;;;;;;5053712;28;20044;-77
2022/08/22 03:20:08;;;;;;;9.25;5.30;;;;;;;;;;5055040;28;20040;-77
2022/08/22 03:22:53;;;;;;;15.43;7.07;;;;;;;;;;5053684;28;20091;-77
2022/08/22 03:25:38;;;;;;;11.32;7.43;;;;;;;;;;5053316;28;20056;-77
2022/08/22 03:28:11;;;;;;;13.07;7.10;;;;;;;;;;5053657;28;20485;-77
2022/08/22 03:30:40;;;;;;;13.10;6.80;;;;;;;;;;5053466;28;20041;-77
2022/08/22 03:33:12;;;;;;;10.50;6.78;;;;;;;;;;5053277;28;20045;-77
2022/08/22 03:35:49;;;;;;;13.65;7.15;;;;;;;;;;5053517;28;20036;-77
2022/08/22 03:38:20;;;;;;;15.07;7.18;;;;;;;;;;5054320;28;20075;-77
2022/08/22 03:40:53;;;;;;;12.98;6.80;;;;;;;;;;5036762;28;20040;-77
2022/08/22 03:43:34;;;;;;;11.25;6.97;;;;;;;;;;5052744;28;20056;-77
2022/08/22 03:46:32;;;;;;;14.13;7.85;;;;;;;;;;5053462;28;20063;-77
2022/08/22 03:49:17;;;;;;;16.00;4.75;;;;;;;;;;5029857;28;20053;-77
2022/08/22 03:52:02;;;;;;;9.52;5.88;;;;;;;;;;5053071;28;20469;-77
2022/08/22 03:54:37;;;;;;;19.85;10.05;;;;;;;;;;5035873;28;20052;-76
2022/08/22 03:57:06;;;;;;;17.48;8.35;;;;;;;;;;5053116;28;20520;-76
2022/08/22 03:59:41;;;;;;;15.88;8.02;;;;;;;;;;5035885;28;20041;-76
2022/08/22 04:02:29;;;;;;;14.52;7.90;;;;;;;;;;5052073;28;20041;-76
2022/08/22 04:05:12;;;;;;;8.13;6.35;;;;;;;;;;5038987;28;20041;-76
2022/08/22 04:07:48;;;;;;;14.30;6.85;;;;;;;;;;5040447;28;20041;-76
2022/08/22 04:10:32;;;;;;;13.23;8.20;;;;;;;;;;5048454;28;20045;-75
2022/08/22 04:13:00;;;;;;;15.55;7.82;;;;;;;;;;5052620;28;20041;-75
2022/08/22 04:15:44;;;;;;;14.85;8.82;;;;;;;;;;5052476;28;20049;-77
2022/08/22 04:18:19;;;;;;;10.40;6.55;;;;;;;;;;5039269;28;20047;-76
2022/08/22 04:21:04;;;;;;;10.93;4.53;;;;;;;;;;5053931;28;20033;-76
2022/08/22 04:23:39;;;;;;;13.53;6.80;;;;;;;;;;5040466;28;20047;-76
2022/08/22 04:26:12;;;;;;;12.50;7.18;;;;;;;;;;5052135;28;20291;-76
2022/08/22 04:28:44;;;;;;;14.55;6.78;;;;;;;;;;5051932;28;20033;-76
2022/08/22 04:31:12;;;;;;;13.27;6.50;;;;;;;;;;5052334;28;20102;-76
2022/08/22 04:33:38;;;;;;;13.35;8.95;;;;;;;;;;5051803;28;20098;-76
2022/08/22 04:36:20;;;;;;;16.88;8.82;;;;;;;;;;5052047;28;20041;-75
2022/08/22 04:38:50;;;;;;;17.95;8.40;;;;;;;;;;5040258;28;20037;-76
2022/08/22 04:41:25;;;;;;;12.90;7.60;;;;;;;;;;5051998;28;20498;-76
2022/08/22 04:44:01;;;;;;;12.73;7.88;;;;;;;;;;5035255;28;20037;-75
2022/08/22 04:46:43;;;;;;;13.82;6.43;;;;;;;;;;5051498;28;20060;-76
2022/08/22 04:49:28;;;;;;;13.80;7.95;;;;;;;;;;5035284;28;20061;-77
2022/08/22 04:52:04;;;;;;;13.25;7.70;;;;;;;;;;5035461;28;20389;-76
2022/08/22 04:54:30;;;;;;;12.25;7.18;;;;;;;;;;5035163;28;20112;-76
2022/08/22 04:57:06;;;;;;;17.00;7.60;;;;;;;;;;5052016;28;20037;-76
2022/08/22 04:59:33;;;;;;;13.35;7.55;;;;;;;;;;5051289;28;20041;-76
2022/08/22 05:02:05;;;;;;;12.57;7.20;;;;;;;;;;5051793;28;20493;-76
2022/08/22 05:04:31;;;;;;;59.47;10.50;;;;;;;;;;5034673;28;20040;-75
2022/08/22 05:07:05;;;;;;;9.10;5.90;;;;;;;;;;5051929;28;20401;-76
2022/08/22 05:09:33;;;;;;;14.13;6.60;;;;;;;;;;5051547;28;20444;-76
2022/08/22 05:12:08;;;;;;;13.63;6.72;;;;;;;;;;5051762;28;20048;-76
2022/08/22 05:14:40;;;;;;;12.45;8.27;;;;;;;;;;5050778;28;20041;-76
2022/08/22 05:17:08;;;;;;;8.48;4.38;;;;;;;;;;5051457;28;20037;-76
2022/08/22 05:19:36;;;;;;;8.90;5.15;;;;;;;;;;5035172;28;20025;-76
2022/08/22 05:22:03;;;;;;;6.45;4.85;;;;;;;;;;5051598;28;20044;-76
2022/08/22 05:24:39;;;;;;;11.32;6.45;;;;;;;;;;5053176;28;20496;-76
2022/08/22 05:27:23;;;;;;;15.43;8.23;;;;;;;;;;5052166;28;20037;-78
2022/08/22 05:29:50;;;;;;;17.23;8.30;;;;;;;;;;5052088;28;20318;-77
2022/08/22 05:32:20;;;;;;;13.27;7.78;;;;;;;;;;5036091;28;20045;-76
2022/08/22 05:34:48;;;;;;;14.20;7.82;;;;;;;;;;5052149;28;20073;-76
2022/08/22 05:37:19;;;;;;;12.13;7.10;;;;;;;;;;5052350;28;20051;-74
2022/08/22 05:39:46;;;;;;;14.57;7.53;;;;;;;;;;5035750;28;20036;-77
2022/08/22 05:42:15;;;;;;;12.80;6.85;;;;;;;;;;5052420;28;20118;-77
2022/08/22 05:44:41;;;;;;;13.90;7.80;;;;;;;;;;5051253;28;20129;-77
2022/08/22 05:47:19;;;;;;;17.02;8.32;;;;;;;;;;5052146;28;20119;-77
2022/08/22 05:50:07;;;;;;;13.70;7.28;;;;;;;;;;5051634;28;20103;-74
2022/08/22 05:52:33;;;;;;;12.20;7.38;;;;;;;;;;5035045;28;20112;-75
2022/08/22 05:55:12;;;;;;;12.52;7.50;;;;;;;;;;5051274;28;20053;-76
2022/08/22 05:57:41;;;;;;;13.20;7.72;;;;;;;;;;5034673;28;20037;-76
2022/08/22 06:00:10;;;;;;;14.05;7.60;;;;;;;;;;5051389;28;20485;-77
2022/08/22 06:02:47;;;;;;;13.85;6.63;;;;;;;;;;5051366;28;20033;-76
2022/08/22 06:05:16;;;;;;;12.35;7.22;;;;;;;;;;5034819;28;20041;-76
2022/08/22 06:07:44;;;;;;;12.60;7.15;;;;;;;;;;5051013;28;20056;-76
2022/08/22 06:10:29;;;;;;;11.52;6.97;;;;;;;;;;5051498;28;20075;-77
2022/08/22 06:13:02;;;;;;;13.65;6.80;;;;;;;;;;5050846;28;20062;-77
2022/08/22 06:15:31;;;;;;;12.05;6.95;;;;;;;;;;5050336;28;20489;-75
2022/08/22 06:18:02;;;;;;;9.55;5.50;;;;;;;;;;5050861;28;20504;-76
2022/08/22 06:20:52;;;;;;;12.13;6.18;;;;;;;;;;5050742;28;20045;-75
2022/08/22 06:23:23;;;;;;;9.02;5.63;;;;;;;;;;5050560;28;20037;-77
2022/08/22 06:25:50;;;;;;;15.65;6.63;;;;;;;;;;5050579;28;20053;-76
2022/08/22 06:28:19;;;;;;;22.10;6.30;;;;;;;;;;5034132;28;20093;-77
2022/08/22 06:30:46;;;;;;;21.75;6.40;;;;;;;;;;5050642;28;20102;-76
2022/08/22 06:33:13;;;;;;;23.63;5.70;;;;;;;;;;5034820;28;20048;-77
2022/08/22 06:38:34;;;;;;;13.00;6.35;;;;;;;;;;5050456;28;20033;-76
2022/08/22 06:41:02;;;;;;;11.60;6.22;;;;;;;;;;5051155;28;20068;-76
2022/08/22 06:43:32;;;;;;;15.43;5.85;;;;;;;;;;5050736;28;20062;-77
2022/08/22 06:45:59;;;;;;;11.00;5.32;;;;;;;;;;5051922;28;20045;-77
2022/08/22 06:48:26;;;;;;;9.73;5.07;;;;;;;;;;5037598;28;20049;-76
2022/08/22 06:50:55;;;;;;;12.02;5.72;;;;;;;;;;5054134;28;20056;-76
2022/08/22 06:53:24;;;;;;;12.38;5.40;;;;;;;;;;5037348;28;20124;-76
2022/08/22 06:55:55;;;;;;;9.93;4.60;;;;;;;;;;5053659;28;20045;-76
2022/08/22 06:58:42;;;;;;;14.18;5.88;;;;;;;;;;5053824;28;20056;-76
2022/08/22 07:01:19;;;;;;;8.95;4.80;;;;;;;;;;5054127;28;20041;-76
2022/08/22 07:03:46;;;;;;;13.07;5.35;;;;;;;;;;5053743;28;20481;-76
2022/08/22 07:06:17;;;;;;;16.35;6.13;;;;;;;;;;5054132;28;20532;-76
2022/08/22 07:08:44;;;;;;;13.10;6.15;;;;;;;;;;5053290;28;20049;-76
2022/08/22 07:11:10;;;;;;;14.52;6.65;;;;;;;;;;5053811;28;20040;-76
2022/08/22 07:13:38;;;;;;;11.75;5.82;;;;;;;;;;5053357;28;20047;-77
2022/08/22 07:16:06;;;;;;;18.25;7.22;;;;;;;;;;5036921;28;20515;-76
2022/08/22 07:18:32;;;;;;;12.98;6.57;;;;;;;;;;5053837;28;20507;-77
2022/08/22 07:21:03;;;;;;;10.15;5.85;;;;;;;;;;5053603;28;20098;-77
2022/08/22 07:23:30;;;;;;;14.80;5.78;;;;;;;;;;5053642;28;20040;-76
2022/08/22 07:25:59;;;;;;;9.05;5.70;;;;;;;;;;5052973;28;20048;-76
2022/08/22 07:28:25;;;;;;;13.27;5.32;;;;;;;;;;5053561;28;20049;-77
2022/08/22 07:31:00;;;;;;;11.18;5.43;;;;;;;;;;5053120;28;20052;-77
2022/08/22 07:33:47;;;;;;;10.30;5.18;;;;;;;;;;5070299;28;20049;-77
2022/08/22 07:36:25;;;;;;;10.57;5.15;;;;;;;;;;5053260;28;20041;-78
2022/08/22 07:39:03;;;;;;;9.82;4.57;;;;;;;;;;5053482;28;20412;-78
2022/08/22 07:41:48;;;;;;;10.77;5.13;;;;;;;;;;5053570;28;20142;-77
2022/08/22 07:44:17;;;;;;;12.93;4.40;;;;;;;;;;5053434;28;20040;-78
2022/08/22 07:46:53;;;;;;;12.52;4.80;;;;;;;;;;5052685;28;20126;-77
2022/08/22 07:49:25;;;;;;;10.60;4.13;;;;;;;;;;5053053;28;20528;-78
2022/08/22 07:51:55;;;;;;;8.57;4.20;;;;;;;;;;5053156;28;20382;-77
2022/08/22 07:54:42;;;;;;;14.10;5.18;;;;;;;;;;5036841;28;20535;-77
2022/08/22 07:57:14;;;;;;;13.43;4.90;;;;;;;;;;5052745;28;20454;-77
2022/08/22 07:59:48;;;;;;;11.77;4.15;;;;;;;;;;5052461;28;20090;-77
2022/08/22 08:02:15;;;;;;;10.48;4.85;;;;;;;;;;5053052;28;20044;-78
2022/08/22 08:04:42;;;;;;;9.13;3.90;;;;;;;;;;5052485;28;20049;-77
2022/08/22 08:07:09;;;;;;;9.40;4.13;;;;;;;;;;5036930;28;20434;-77
2022/08/22 08:09:39;;;;;;;8.63;4.70;;;;;;;;;;5053044;28;20119;-77
2022/08/22 08:12:07;;;;;;;12.98;4.70;;;;;;;;;;5053012;28;20045;-77
2022/08/22 08:14:36;;;;;;;11.07;3.83;;;;;;;;;;5052502;28;20044;-78
2022/08/22 08:17:11;;;;;;;10.15;4.20;;;;;;;;;;5052328;28;20059;-77
2022/08/22 08:19:40;;;;;;;8.27;3.92;;;;;;;;;;5052351;28;20040;-78
2022/08/22 08:22:06;;;;;;;11.70;3.60;;;;;;;;;;5036020;28;20041;-78
2022/08/22 08:24:35;;;;;;;11.82;3.75;;;;;;;;;;5052692;28;20044;-77
2022/08/22 08:29:57;;;;;;;12.32;3.53;;;;;;;;;;5052203;28;20554;-77
2022/08/22 08:32:24;;;;;;;11.85;3.08;;;;;;;;;;5052645;28;20041;-78
2022/08/22 08:34:51;;;;;;;12.32;3.53;;;;;;;;;;5035018;28;20041;-78
2022/08/22 08:37:29;;;;;;;11.48;3.10;;;;;;;;;;5036133;28;20131;-78
2022/08/22 08:39:57;;;;;;;9.00;2.80;;;;;;;;;;5051858;28;20052;-78
2022/08/22 08:43:25;;;;;;;12.20;2.83;;;;;;;;;;5052357;28;20041;-78
2022/08/22 08:45:32;;;;;;;7.05;2.08;;;;;;;;;;5051868;28;20166;-77
2022/08/22 08:48:05;;;;;;;5.57;1.90;;;;;;;;;;5051598;28;20043;-77
2022/08/22 08:50:34;;;;;;;5.68;1.98;;;;;;;;;;5038831;28;20037;-77
2022/08/22 08:53:18;;;;;;;4.93;1.70;;;;;;;;;;5052923;28;20405;-75
2022/08/22 08:55:50;;;;;;;5.30;1.70;;;;;;;;;;5039491;28;20043;-76
2022/08/22 08:58:35;;;;;;;7.60;1.60;;;;;;;;;;5035727;28;20370;-78
2022/08/22 09:01:15;;;;;;;7.85;1.80;;;;;;;;;;5051549;28;20095;-76
2022/08/22 09:03:56;;;;;;;7.38;1.95;;;;;;;;;;5052024;28;20548;-78
2022/08/22 09:06:28;;;;;;;6.38;1.80;;;;;;;;;;5051640;28;20056;-75
2022/08/22 09:09:07;;;;;;;7.00;2.13;;;;;;;;;;5050811;28;20041;-76
2022/08/22 09:11:56;;;;;;;5.72;1.88;;;;;;;;;;5051624;28;20072;-77
2022/08/22 09:14:22;;;;;;;5.03;1.80;;;;;;;;;;5051753;28;20049;-77
2022/08/22 09:16:48;;;;;;;6.57;1.77;;;;;;;;;;5034693;28;20393;-77
2022/08/22 09:19:26;;;;;;;7.07;1.90;;;;;;;;;;5051418;28;20048;-76
2022/08/22 09:21:52;;;;;;;6.25;1.70;;;;;;;;;;5034469;28;20087;-77
2022/08/22 09:24:28;;;;;;;7.15;1.90;;;;;;;;;;5051675;28;20040;-78
2022/08/22 09:26:56;;;;;;;6.40;1.80;;;;;;;;;;5050933;28;20036;-77
2022/08/22 09:29:38;;;;;;;5.93;1.90;;;;;;;;;;5051501;28;20045;-77
2022/08/22 09:32:16;;;;;;;5.88;1.60;;;;;;;;;;5051315;28;20048;-77
2022/08/22 09:34:42;;;;;;;6.15;1.70;;;;;;;;;;5051106;28;20090;-77
2022/08/22 09:37:11;;;;;;;4.68;1.75;;;;;;;;;;5051433;28;20032;-77
2022/08/22 09:39:48;;;;;;;6.68;1.60;;;;;;;;;;5051311;28;20494;-76
2022/08/22 09:42:19;;;;;;;4.68;1.35;;;;;;;;;;5050846;28;20072;-76
2022/08/22 09:45:24;;;;;;;7.68;1.70;;;;;;;;;;5051361;28;20055;-76
2022/08/22 09:47:57;;;;;;;5.30;1.58;;;;;;;;;;5032860;28;20045;-76
2022/08/22 09:50:35;;;;;;;7.30;1.67;;;;;;;;;;5017180;28;20419;-76
2022/08/22 09:53:04;;;;;;;5.40;2.03;;;;;;;;;;5042737;28;20101;-76
2022/08/22 09:55:49;;;;;;;5.20;1.45;;;;;;;;;;5050839;28;20048;-77
2022/08/22 09:58:33;;;;;;;4.43;1.40;;;;;;;;;;5050484;28;20076;-77
2022/08/22 10:01:08;;;;;;;5.18;1.40;;;;;;;;;;5050686;28;20053;-76
2022/08/22 10:03:46;;;;;;;4.68;1.60;;;;;;;;;;5051139;28;20497;-77
2022/08/22 10:06:24;;;;;;;6.05;1.77;;;;;;;;;;5050744;28;20482;-76
2022/08/22 10:09:05;;;;;;;5.22;1.70;;;;;;;;;;5034483;28;20054;-76
2022/08/22 10:11:35;;;;;;;9.35;1.73;;;;;;;;;;5038819;28;20041;-76
2022/08/22 10:14:09;;;;;;;6.65;1.70;;;;;;;;;;5050486;28;20045;-77
2022/08/22 10:16:59;;;;;;;4.50;1.50;;;;;;;;;;5050709;28;20041;-77
2022/08/22 10:19:31;;;;;;;8.48;1.80;;;;;;;;;;5050866;28;20041;-77
2022/08/22 10:22:13;;;;;;;5.80;1.30;;;;;;;;;;5037640;28;20040;-77
2022/08/22 10:24:45;;;;;;;4.57;1.40;;;;;;;;;;5038197;28;20051;-77
2022/08/22 10:27:18;;;;;;;3.88;1.33;;;;;;;;;;5054307;28;20043;-77
2022/08/22 10:29:54;;;;;;;5.47;1.50;;;;;;;;;;5055256;28;20116;-77
2022/08/22 10:32:39;;;;;;;6.30;1.50;;;;;;;;;;5054922;28;20400;-77
2022/08/22 10:35:15;;;;;;;5.38;1.40;;;;;;;;;;5055495;28;20120;-77
2022/08/22 10:37:53;;;;;;;5.85;1.50;;;;;;;;;;5037975;28;20045;-77
2022/08/22 10:40:33;;;;;;;6.50;1.55;;;;;;;;;;5037788;28;20041;-76
2022/08/22 10:43:18;;;;;;;4.25;1.20;;;;;;;;;;5054256;28;20436;-76
2022/08/22 10:45:46;;;;;;;5.68;1.60;;;;;;;;;;5054650;28;20182;-77
2022/08/22 10:48:12;;;;;;;6.65;1.58;;;;;;;;;;5053784;28;20417;-77
2022/08/22 10:50:47;;;;;;;6.20;1.50;;;;;;;;;;5054422;28;20323;-76
2022/08/22 10:53:28;;;;;;;;;;;;;;;;;;5053950;28;20045;-77
2022/08/22 10:55:57;;;;;;;5.07;1.58;;;;;;;;;;5054303;28;20339;-76
2022/08/22 10:58:28;;;;;;;6.05;1.85;;;;;;;;;;5053913;28;20041;-77
2022/08/22 11:00:58;;;;;;;5.07;1.75;;;;;;;;;;5037463;28;20404;-76
2022/08/22 11:03:37;;;;;;;5.00;1.80;;;;;;;;;;5053925;28;20076;-76
2022/08/22 11:06:05;;;;;;;4.78;1.77;;;;;;;;;;5053898;28;20048;-76
2022/08/22 11:08:49;;;;;;;6.28;1.80;;;;;;;;;;5053887;28;20526;-77
2022/08/22 11:11:15;;;;;;;6.30;1.70;;;;;;;;;;5053544;28;20044;-76
2022/08/22 11:13:48;;;;;;;7.45;1.73;;;;;;;;;;5037299;28;20125;-76
2022/08/22 11:16:17;;;;;;;6.25;1.60;;;;;;;;;;5053387;28;20041;-76
2022/08/22 11:18:52;;;;;;;5.60;1.85;;;;;;;;;;5053960;28;20037;-76
2022/08/22 11:21:29;;;;;;;6.13;1.52;;;;;;;;;;5037033;28;20083;-76
2022/08/22 11:24:05;;;;;;;7.57;2.13;;;;;;;;;;5053638;28;20043;-76
2022/08/22 11:26:37;;;;;;;5.35;1.70;;;;;;;;;;5037137;28;20045;-76
2022/08/22 11:29:03;;;;;;;5.00;1.50;;;;;;;;;;5036659;28;20094;-75
2022/08/22 11:31:49;;;;;;;4.78;1.52;;;;;;;;;;5036004;28;20049;-77
2022/08/22 11:34:18;;;;;;;6.97;2.00;;;;;;;;;;5036418;28;20048;-76
2022/08/22 11:36:56;;;;;;;6.55;1.48;;;;;;;;;;5053521;28;20045;-76
2022/08/22 11:39:43;;;;;;;6.80;1.55;;;;;;;;;;5053689;28;20116;-76
2022/08/22 11:42:16;;;;;;;6.80;1.70;;;;;;;;;;5053346;28;20553;-77
2022/08/22 11:44:59;;;;;;;6.25;1.63;;;;;;;;;;5053564;28;20165;-77
2022/08/22 11:47:29;;;;;;;8.98;1.88;;;;;;;;;;5036292;28;20033;-77
2022/08/22 11:50:02;;;;;;;5.85;1.80;;;;;;;;;;5054485;28;20061;-76
2022/08/22 11:52:45;;;;;;;5.90;1.48;;;;;;;;;;5052804;28;20041;-76
2022/08/22 11:55:22;;;;;;;5.97;1.55;;;;;;;;;;5053139;28;20053;-76
2022/08/22 11:57:50;;;;;;;7.65;1.50;;;;;;;;;;5053287;28;20539;-76
2022/08/22 12:00:20;;;;;;;6.00;1.60;;;;;;;;;;5052609;28;20037;-76
2022/08/22 12:02:46;;;;;;;6.25;1.90;;;;;;;;;;5036341;28;20120;-76
2022/08/22 12:05:23;;;;;;;5.32;1.40;;;;;;;;;;5052786;28;20099;-76
2022/08/22 12:08:12;;;;;;;5.45;1.50;;;;;;;;;;5053015;28;20148;-76
2022/08/22 12:10:47;;;;;;;6.15;1.50;;;;;;;;;;5049750;28;20122;-76
2022/08/22 12:13:19;;;;;;;9.33;1.73;;;;;;;;;;5052521;28;20041;-76
2022/08/22 12:16:15;;;;;;;6.35;1.63;;;;;;;;;;5036098;28;20047;-76
2022/08/22 12:18:53;;;;;;;6.80;1.60;;;;;;;;;;5047815;28;20049;-76
2022/08/22 12:21:34;;;;;;;4.85;1.70;;;;;;;;;;5052042;28;20051;-76
2022/08/22 12:24:15;;;;;;;7.10;2.35;;;;;;;;;;5052397;28;20040;-76
2022/08/22 12:27:00;;;;;;;4.43;1.60;;;;;;;;;;5039158;28;20107;-77
2022/08/22 12:29:32;;;;;;;7.47;2.37;;;;;;;;;;5051935;28;20132;-77
2022/08/22 12:32:10;;;;;;;4.85;1.73;;;;;;;;;;5052450;28;20298;-76
2022/08/22 12:34:48;;;;;;;5.32;1.92;;;;;;;;;;5053621;28;20448;-76
2022/08/22 12:37:23;;;;;;;5.43;1.73;;;;;;;;;;5052033;28;20123;-76
2022/08/22 12:40:07;;;;;;;6.03;1.70;;;;;;;;;;5052153;28;20401;-75
2022/08/22 12:42:52;;;;;;;7.78;2.08;;;;;;;;;;5052303;28;20507;-76
2022/08/22 12:45:51;;;;;;;4.88;1.70;;;;;;;;;;5035463;28;20051;-76
2022/08/22 12:48:37;;;;;;;7.75;2.28;;;;;;;;;;5051737;28;20060;-76
2022/08/22 12:51:15;;;;;;;4.63;2.10;;;;;;;;;;5052573;28;20048;-77
2022/08/22 12:53:41;;;;;;;6.22;2.20;;;;;;;;;;5035276;28;20068;-76
2022/08/22 12:56:14;;;;;;;7.85;2.60;;;;;;;;;;5051961;28;20053;-76
2022/08/22 12:58:59;;;;;;;5.90;2.15;;;;;;;;;;5052016;28;20158;-76
2022/08/22 13:01:26;;;;;;;8.35;2.45;;;;;;;;;;5051917;28;20554;-77
2022/08/22 13:03:56;;;;;;;5.20;1.95;;;;;;;;;;5052363;28;20461;-77
2022/08/22 13:06:35;;;;;;;5.78;1.95;;;;;;;;;;5051991;28;20489;-76
2022/08/22 13:09:03;;;;;;;8.35;2.33;;;;;;;;;;5035379;28;20477;-76
2022/08/22 13:11:36;;;;;;;7.10;2.05;;;;;;;;;;5051550;28;20489;-76
2022/08/22 13:14:02;;;;;;;7.85;2.05;;;;;;;;;;5051956;28;20049;-76
2022/08/22 13:16:42;;;;;;;8.07;2.35;;;;;;;;;;5051151;28;20044;-77
2022/08/22 13:19:12;;;;;;;8.30;2.38;;;;;;;;;;5051442;28;20080;-77
2022/08/22 13:21:43;;;;;;;5.32;2.00;;;;;;;;;;5051133;28;20045;-77
2022/08/22 13:24:12;;;;;;;7.70;2.30;;;;;;;;;;5051779;28;20110;-77
2022/08/22 13:26:45;;;;;;;6.15;2.10;;;;;;;;;;5050800;28;20051;-76
2022/08/22 13:29:18;;;;;;;6.78;2.30;;;;;;;;;;5050319;28;20120;-77
2022/08/22 13:31:50;;;;;;;7.97;2.35;;;;;;;;;;5065378;28;20124;-76
2022/08/22 13:34:26;;;;;;;5.72;2.20;;;;;;;;;;5050949;28;20044;-76
2022/08/22 13:36:54;;;;;;;6.18;2.10;;;;;;;;;;5034509;28;20481;-76
2022/08/22 13:39:29;;;;;;;9.25;2.35;;;;;;;;;;5050670;28;20500;-80
2022/08/22 13:41:56;;;;;;;6.82;1.95;;;;;;;;;;5034376;28;20490;-77
2022/08/22 13:44:22;;;;;;;8.30;2.00;;;;;;;;;;5050852;28;20037;-79
2022/08/22 13:46:49;;;;;;;6.03;2.20;;;;;;;;;;5050691;28;20049;-80
2022/08/22 13:49:32;;;;;;;6.43;2.03;;;;;;;;;;5033869;28;20057;-79
2022/08/22 13:51:58;;;;;;;5.30;2.03;;;;;;;;;;5045317;28;20543;-80
2022/08/22 13:54:24;;;;;;;8.13;2.63;;;;;;;;;;5045446;28;20079;-79
2022/08/22 13:56:56;;;;;;;7.90;2.42;;;;;;;;;;5046310;28;20080;-79
2022/08/22 13:59:52;;;;;;;6.68;2.30;;;;;;;;;;5046697;28;20449;-79
2022/08/22 14:02:26;;;;;;;7.18;2.30;;;;;;;;;;5006061;28;20132;-79
2022/08/22 14:04:52;;;;;;;6.80;2.30;;;;;;;;;;5049798;28;20072;-80
2022/08/22 14:07:45;;;;;;;6.00;2.40;;;;;;;;;;5045992;28;20050;-79
2022/08/22 14:10:18;;;;;;;7.47;1.95;;;;;;;;;;5032189;28;20111;-80
2022/08/22 14:12:44;;;;;;;6.85;2.00;;;;;;;;;;5050228;28;20100;-79
2022/08/22 14:15:11;;;;;;;6.57;2.10;;;;;;;;;;5033914;28;20401;-81
2022/08/22 14:17:42;;;;;;;8.23;2.13;;;;;;;;;;5033913;28;20044;-80
2022/08/22 14:20:12;;;;;;;10.38;2.75;;;;;;;;;;5033812;28;20115;-79
2022/08/22 14:22:39;;;;;;;4.68;1.90;;;;;;;;;;5033770;28;20397;-77
2022/08/22 14:25:16;;;;;;;7.35;2.20;;;;;;;;;;5050583;28;20049;-75
2022/08/22 14:28:03;;;;;;;6.63;2.40;;;;;;;;;;5032837;28;20045;-76
2022/08/22 14:30:32;;;;;;;6.82;2.10;;;;;;;;;;5030391;28;20056;-76
2022/08/22 14:33:20;;;;;;;5.68;2.10;;;;;;;;;;5045286;28;20427;-76
2022/08/22 14:35:46;;;;;;;;;;;;;;;;;;5043789;28;20084;-76
2022/08/22 14:38:31;;;;;;;7.90;2.00;;;;;;;;;;5033236;28;19924;-77
2022/08/22 14:41:01;;;;;;;6.47;2.10;;;;;;;;;;5033216;28;20034;-77
2022/08/22 14:43:33;;;;;;;5.43;1.60;;;;;;;;;;5046092;28;20494;-76
2022/08/22 14:46:03;;;;;;;7.28;2.35;;;;;;;;;;5050173;28;20049;-77
2022/08/22 14:48:34;;;;;;;7.43;2.20;;;;;;;;;;5032399;28;20065;-76
2022/08/22 14:51:09;;;;;;;6.50;2.13;;;;;;;;;;5032822;28;20057;-77
2022/08/22 14:53:37;;;;;;;5.90;1.77;;;;;;;;;;5032759;28;20037;-77
2022/08/22 14:56:11;;;;;;;7.43;2.08;;;;;;;;;;5036830;28;20050;-77
2022/08/22 14:58:48;;;;;;;5.68;2.10;;;;;;;;;;5043790;28;20513;-76
2022/08/22 15:01:15;;;;;;;6.25;1.92;;;;;;;;;;5032659;28;20049;-77
2022/08/22 15:03:42;;;;;;;6.95;2.50;;;;;;;;;;5037881;28;20041;-77
2022/08/22 15:06:11;;;;;;;6.90;1.90;;;;;;;;;;5017377;28;20041;-77
2022/08/22 15:08:39;;;;;;;7.00;2.20;;;;;;;;;;5039823;28;20080;-76
2022/08/22 15:11:05;;;;;;;4.95;1.85;;;;;;;;;;5068596;28;20041;-76
2022/08/22 15:13:31;;;;;;;6.70;2.00;;;;;;;;;;5053226;28;20072;-76
2022/08/22 15:15:57;;;;;;;6.97;2.38;;;;;;;;;;5036847;28;20090;-77
2022/08/22 15:18:27;;;;;;;6.60;2.20;;;;;;;;;;5037464;28;20393;-77
2022/08/22 15:21:19;;;;;;;4.72;2.15;;;;;;;;;;5053448;28;20515;-76
2022/08/22 15:23:46;;;;;;;5.55;2.00;;;;;;;;;;5052332;28;20397;-77
2022/08/22 15:26:19;;;;;;;7.70;2.20;;;;;;;;;;5036883;28;20048;-77